Time;durP1;ratioP1;P1;durP2;ratioP2;P2;SDS_P1;SDS_P2;PMS_P1;PMS_P2;Temp;Humidity;BMP_temperature;BMP_pressure;BME280_temperature;BME280_humidity;BME280_pressure;Samples;Min_cycle;Max_cycle;Signal;HPM_P1;HPM_P2
2023/04/28 00:03:33;;;;;;;;;;;9.11;-2.36;;;;;;2680563;76;20437;-95
2023/04/28 00:47:47;;;;;;;;;;;9.00;-1.04;;;;;;2664457;76;21308;-95
2023/04/28 00:51:20;;;;;;;;;;;9.05;-0.83;;;;;;2684255;76;20410;-95
2023/04/28 00:58:46;;;;;;;;;;;9.24;-0.46;;;;;;2684960;76;20425;-96
2023/04/28 01:02:20;;;;;;;;;;;9.34;-0.45;;;;;;2679437;76;20339;-94
2023/04/28 01:06:00;;;;;;;;;;;9.40;-0.38;;;;;;2679477;76;20360;-94
2023/04/28 01:09:30;;;;;;;;;;;9.46;-0.34;;;;;;2677476;76;20318;-94
2023/04/28 01:12:58;;;;;;;;;;;9.47;-0.22;;;;;;2678589;76;20321;-94
2023/04/28 01:16:29;;;;;;;;;;;9.48;-0.13;;;;;;2678643;76;20441;-94
2023/04/28 01:19:59;;;;;;;;;;;9.47;0.00;;;;;;2678055;76;20414;-95
2023/04/28 01:23:35;;;;;;;;;;;9.49;0.09;;;;;;2678120;76;20776;-94
2023/04/28 01:27:03;;;;;;;;;;;9.50;0.19;;;;;;2679104;76;20305;-94
2023/04/28 01:30:34;;;;;;;;;;;9.52;0.26;;;;;;2678072;76;20900;-94
2023/04/28 01:34:02;;;;;;;;;;;9.55;0.36;;;;;;2682264;76;20327;-95
2023/04/28 01:37:35;;;;;;;;;;;9.64;0.32;;;;;;2683023;76;20460;-94
2023/04/28 01:41:03;;;;;;;;;;;9.69;0.34;;;;;;2682626;76;20464;-94
2023/04/28 01:44:37;;;;;;;;;;;9.74;0.45;;;;;;2682654;76;20457;-94
2023/04/28 01:48:18;;;;;;;;;;;9.79;0.52;;;;;;2682974;76;20331;-95
2023/04/28 01:51:52;;;;;;;;;;;9.83;0.51;;;;;;2683270;76;20220;-94
2023/04/28 01:55:25;;;;;;;;;;;9.91;0.58;;;;;;2682255;76;20930;-95
2023/04/28 01:59:08;;;;;;;;;;;9.89;0.54;;;;;;2682854;76;20324;-95
2023/04/28 02:02:57;;;;;;;;;;;9.92;0.64;;;;;;2683176;76;20730;-95
2023/04/28 02:06:17;;;;;;;;;;;9.89;0.92;;;;;;2683540;76;20303;-94
2023/04/28 02:10:17;;;;;;;;;;;9.81;1.39;;;;;;2683285;76;20415;-95
2023/04/28 02:14:26;;;;;;;;;;;9.78;1.72;;;;;;2684274;76;20224;-95
2023/04/28 02:18:06;;;;;;;;;;;9.85;1.82;;;;;;2684427;76;20214;-94
2023/04/28 02:21:57;;;;;;;;;;;9.98;1.79;;;;;;2675651;76;20357;-94
2023/04/28 02:25:43;;;;;;;;;;;10.04;1.66;;;;;;2676691;76;20413;-94
2023/04/28 02:29:06;;;;;;;;;;;10.13;1.65;;;;;;2677010;76;20438;-94
2023/04/28 02:32:36;;;;;;;;;;;10.21;1.75;;;;;;2677726;76;20452;-94
2023/04/28 03:24:24;;;;;;;;;;;10.21;6.47;;;;;;2665914;76;20890;-90
2023/04/28 03:27:52;;;;;;;;;;;10.29;6.37;;;;;;2671769;76;20825;-91
2023/04/28 03:31:20;;;;;;;;;;;10.43;6.21;;;;;;2671503;76;20935;-91
2023/04/28 03:34:51;;;;;;;;;;;10.52;6.01;;;;;;2671530;76;20867;-91
2023/04/28 03:38:19;;;;;;;;;;;10.55;5.80;;;;;;2671313;76;20973;-92
2023/04/28 03:41:47;;;;;;;;;;;10.56;5.81;;;;;;2672249;76;20432;-91
2023/04/28 03:45:15;;;;;;;;;;;10.56;5.83;;;;;;2672056;76;20424;-92
2023/04/28 03:48:44;;;;;;;;;;;10.59;5.87;;;;;;2671915;76;20452;-92
2023/04/28 03:52:13;;;;;;;;;;;10.53;6.21;;;;;;2671760;76;20303;-91
2023/04/28 03:55:41;;;;;;;;;;;10.38;6.73;;;;;;2671561;76;20418;-91
2023/04/28 03:59:11;;;;;;;;;;;10.30;7.03;;;;;;2672035;76;20430;-91
2023/04/28 04:02:39;;;;;;;;;;;10.25;7.35;;;;;;2671716;76;20687;-91
2023/04/28 04:06:07;;;;;;;;;;;10.14;8.34;;;;;;2672151;76;20441;-91
2023/04/28 04:09:38;;;;;;;;;;;10.09;9.41;;;;;;2671447;76;20459;-91
2023/04/28 04:13:05;;;;;;;;;;;10.14;8.79;;;;;;2671567;76;20863;-90
2023/04/28 04:16:33;;;;;;;;;;;10.12;8.43;;;;;;2671741;76;20295;-91
2023/04/28 04:20:01;;;;;;;;;;;10.16;8.71;;;;;;2671592;76;20392;-91
2023/04/28 04:23:29;;;;;;;;;;;10.28;9.50;;;;;;2671617;76;20877;-91
2023/04/28 04:26:57;;;;;;;;;;;10.30;9.66;;;;;;2671721;76;20773;-91
2023/04/28 04:30:25;;;;;;;;;;;10.39;9.80;;;;;;2670114;76;22391;-91
2023/04/28 04:33:53;;;;;;;;;;;10.44;9.98;;;;;;2672374;76;20469;-91
2023/04/28 04:37:22;;;;;;;;;;;10.48;10.07;;;;;;2671878;76;20428;-91
2023/04/28 04:40:50;;;;;;;;;;;10.55;10.10;;;;;;2669493;76;20453;-93
2023/04/28 04:44:18;;;;;;;;;;;10.55;10.96;;;;;;2670852;76;20454;-92
2023/04/28 04:47:47;;;;;;;;;;;10.52;11.85;;;;;;2671121;76;20430;-90
2023/04/28 04:51:15;;;;;;;;;;;10.52;13.20;;;;;;2671951;76;20311;-91
2023/04/28 04:54:43;;;;;;;;;;;10.62;13.76;;;;;;2671493;76;20304;-91
2023/04/28 04:58:11;;;;;;;;;;;10.74;13.74;;;;;;2672198;76;20418;-92
2023/04/28 05:01:39;;;;;;;;;;;10.83;13.91;;;;;;2671179;76;20436;-92
2023/04/28 05:05:08;;;;;;;;;;;10.94;13.38;;;;;;2670810;76;20522;-91
2023/04/28 05:08:36;;;;;;;;;;;10.97;13.02;;;;;;2672088;76;20303;-91
2023/04/28 05:12:04;;;;;;;;;;;10.99;13.04;;;;;;2671390;76;20311;-92
2023/04/28 05:15:34;;;;;;;;;;;11.08;12.95;;;;;;2669976;76;20414;-92
2023/04/28 05:19:07;;;;;;;;;;;11.11;12.77;;;;;;2670069;76;20408;-91
2023/04/28 05:22:32;;;;;;;;;;;11.10;12.71;;;;;;2671469;76;20421;-91
2023/04/28 05:26:01;;;;;;;;;;;11.13;12.73;;;;;;2670215;76;20413;-91
2023/04/28 05:29:30;;;;;;;;;;;11.16;12.65;;;;;;2669999;76;20898;-92
2023/04/28 05:32:58;;;;;;;;;;;11.20;12.59;;;;;;2672937;76;20448;-91
2023/04/28 05:36:26;;;;;;;;;;;11.27;12.57;;;;;;2671004;76;20418;-92
2023/04/28 05:39:54;;;;;;;;;;;11.30;12.61;;;;;;2670683;76;20425;-92
2023/04/28 05:43:22;;;;;;;;;;;11.39;12.63;;;;;;2671188;76;20409;-91
2023/04/28 05:46:50;;;;;;;;;;;11.44;12.49;;;;;;2671714;76;20432;-92
2023/04/28 05:50:24;;;;;;;;;;;11.48;12.46;;;;;;2671457;76;20422;-90
2023/04/28 05:53:48;;;;;;;;;;;11.52;12.51;;;;;;2671521;76;20404;-93
2023/04/28 05:57:16;;;;;;;;;;;11.52;12.55;;;;;;2671316;76;20425;-92
2023/04/28 06:00:45;;;;;;;;;;;11.56;12.61;;;;;;2669196;76;20916;-91
2023/04/28 06:04:16;;;;;;;;;;;11.56;12.66;;;;;;2671343;76;20700;-93
2023/04/28 06:07:44;;;;;;;;;;;11.59;12.69;;;;;;2672143;76;20428;-92
2023/04/28 06:11:12;;;;;;;;;;;11.63;12.75;;;;;;2672320;76;20453;-92
2023/04/28 06:14:40;;;;;;;;;;;11.61;12.83;;;;;;2672195;76;20441;-94
2023/04/28 06:18:08;;;;;;;;;;;11.54;12.96;;;;;;2671911;76;21103;-93
2023/04/28 06:21:36;;;;;;;;;;;11.43;13.39;;;;;;2672330;76;20852;-92
2023/04/28 06:25:07;;;;;;;;;;;11.53;13.45;;;;;;2672108;76;20437;-92
2023/04/28 06:28:35;;;;;;;;;;;11.68;13.33;;;;;;2672438;76;21301;-92
2023/04/28 06:32:03;;;;;;;;;;;11.86;13.19;;;;;;2672210;76;20405;-93
2023/04/28 06:35:34;;;;;;;;;;;12.00;13.04;;;;;;2670869;76;20401;-92
2023/04/28 06:39:01;;;;;;;;;;;12.08;12.96;;;;;;2672686;76;20411;-91
2023/04/28 06:42:29;;;;;;;;;;;12.19;12.92;;;;;;2669739;76;20617;-91
2023/04/28 06:45:57;;;;;;;;;;;12.21;12.89;;;;;;2671703;76;20402;-91
2023/04/28 06:49:25;;;;;;;;;;;12.32;13.02;;;;;;2672154;76;20411;-92
2023/04/28 06:52:53;;;;;;;;;;;12.49;12.85;;;;;;2671409;76;20315;-92
2023/04/28 06:56:24;;;;;;;;;;;12.78;12.86;;;;;;2672174;76;20339;-93
2023/04/28 06:59:58;;;;;;;;;;;13.08;12.68;;;;;;2671572;76;20418;-93
2023/04/28 07:03:26;;;;;;;;;;;13.03;12.80;;;;;;2672331;76;20355;-92
2023/04/28 07:06:54;;;;;;;;;;;13.06;12.91;;;;;;2671148;76;20932;-94
2023/04/28 07:10:22;;;;;;;;;;;13.41;12.86;;;;;;2669299;76;20984;-93
2023/04/28 07:13:51;;;;;;;;;;;13.76;12.59;;;;;;2669266;76;20965;-92
2023/04/28 07:17:22;;;;;;;;;;;14.03;12.35;;;;;;2669829;76;20808;-93
2023/04/28 07:20:50;;;;;;;;;;;14.13;12.57;;;;;;2669659;76;20461;-92
2023/04/28 07:24:19;;;;;;;;;;;14.26;12.52;;;;;;2671854;76;20334;-90
2023/04/28 07:27:47;;;;;;;;;;;14.24;12.42;;;;;;2671050;76;20441;-89
2023/04/28 07:31:15;;;;;;;;;;;14.21;12.49;;;;;;2671583;76;20320;-89
2023/04/28 07:34:43;;;;;;;;;;;14.15;12.62;;;;;;2669582;76;20433;-90
2023/04/28 07:38:11;;;;;;;;;;;14.32;12.79;;;;;;2670899;76;20428;-90
2023/04/28 07:41:39;;;;;;;;;;;14.51;12.68;;;;;;2670123;76;20430;-89
2023/04/28 07:45:07;;;;;;;;;;;14.64;12.65;;;;;;2669606;76;20310;-90
2023/04/28 07:48:35;;;;;;;;;;;14.63;12.65;;;;;;2670871;76;20308;-89
2023/04/28 07:52:03;;;;;;;;;;;14.42;12.93;;;;;;2669790;76;20342;-89
2023/04/28 07:55:32;;;;;;;;;;;14.24;13.41;;;;;;2671436;76;20299;-89
2023/04/28 07:59:00;;;;;;;;;;;14.14;14.16;;;;;;2670192;76;20856;-91
2023/04/28 08:02:36;;;;;;;;;;;14.14;14.76;;;;;;2667989;76;20291;-90
2023/04/28 08:06:03;;;;;;;;;;;14.21;14.94;;;;;;2669261;76;20904;-90
2023/04/28 08:09:33;;;;;;;;;;;14.47;14.97;;;;;;2669673;76;20453;-89
2023/04/28 08:12:58;;;;;;;;;;;14.80;14.84;;;;;;2669758;76;20544;-89
2023/04/28 08:16:26;;;;;;;;;;;15.11;14.75;;;;;;2671286;76;20946;-89
2023/04/28 08:19:54;;;;;;;;;;;15.51;14.26;;;;;;2671594;76;20348;-89
2023/04/28 08:23:22;;;;;;;;;;;15.76;13.92;;;;;;2670349;76;20439;-90
2023/04/28 08:26:50;;;;;;;;;;;16.04;13.65;;;;;;2669694;76;21239;-89
2023/04/28 08:30:19;;;;;;;;;;;16.05;13.52;;;;;;2670346;76;20924;-90
2023/04/28 08:33:49;;;;;;;;;;;16.12;13.51;;;;;;2671414;76;21072;-89
2023/04/28 08:37:16;;;;;;;;;;;16.26;13.49;;;;;;2671833;76;20450;-89
2023/04/28 08:40:45;;;;;;;;;;;16.30;13.20;;;;;;2672425;76;20443;-90
2023/04/28 08:44:13;;;;;;;;;;;16.29;13.27;;;;;;2670784;76;20883;-90
2023/04/28 08:47:44;;;;;;;;;;;15.89;13.46;;;;;;2671188;76;20494;-89
2023/04/28 08:51:11;;;;;;;;;;;15.73;13.75;;;;;;2670654;76;20451;-89
2023/04/28 08:54:39;;;;;;;;;;;15.65;14.00;;;;;;2670904;76;20429;-89
2023/04/28 08:58:07;;;;;;;;;;;15.66;14.09;;;;;;2670560;76;20888;-90
2023/04/28 09:01:36;;;;;;;;;;;15.70;14.07;;;;;;2671329;76;20904;-90
2023/04/28 09:05:04;;;;;;;;;;;15.76;14.00;;;;;;2670816;76;20886;-90
2023/04/28 09:08:32;;;;;;;;;;;15.83;13.92;;;;;;2670873;76;20869;-90
2023/04/28 09:12:00;;;;;;;;;;;16.13;13.66;;;;;;2670332;76;20540;-90
2023/04/28 09:15:28;;;;;;;;;;;16.52;13.32;;;;;;2670913;76;20425;-91
2023/04/28 09:19:01;;;;;;;;;;;17.09;12.91;;;;;;2671349;76;20421;-90
2023/04/28 09:22:26;;;;;;;;;;;17.64;12.32;;;;;;2669736;76;20428;-90
2023/04/28 09:25:54;;;;;;;;;;;17.74;11.81;;;;;;2671330;76;20442;-88
2023/04/28 09:29:22;;;;;;;;;;;17.61;11.76;;;;;;2670043;76;20439;-88
2023/04/28 09:32:50;;;;;;;;;;;17.26;12.03;;;;;;2670733;76;20422;-88
2023/04/28 09:36:19;;;;;;;;;;;17.04;12.38;;;;;;2668846;76;20447;-88
2023/04/28 09:39:48;;;;;;;;;;;16.79;12.73;;;;;;2668974;76;20565;-88
2023/04/28 09:43:16;;;;;;;;;;;16.66;12.83;;;;;;2667186;76;20434;-89
2023/04/28 09:46:44;;;;;;;;;;;16.47;12.69;;;;;;2663815;76;21331;-88
2023/04/28 09:50:13;;;;;;;;;;;16.26;13.22;;;;;;2666862;76;20505;-88
2023/04/28 09:53:41;;;;;;;;;;;16.05;13.46;;;;;;2669831;76;20417;-88
2023/04/28 09:57:11;;;;;;;;;;;15.66;13.65;;;;;;2667732;76;20415;-88
2023/04/28 10:00:39;;;;;;;;;;;15.28;14.32;;;;;;2669806;76;20432;-88
2023/04/28 10:04:07;;;;;;;;;;;15.04;14.89;;;;;;2669525;76;20471;-87
2023/04/28 10:07:35;;;;;;;;;;;15.11;15.39;;;;;;2670462;76;20577;-87
2023/04/28 10:11:03;;;;;;;;;;;15.36;15.21;;;;;;2668971;76;20694;-88
2023/04/28 10:14:32;;;;;;;;;;;15.47;15.22;;;;;;2668754;76;20426;-86
2023/04/28 10:18:00;;;;;;;;;;;15.61;15.16;;;;;;2669827;76;20435;-87
2023/04/28 10:21:28;;;;;;;;;;;15.53;15.14;;;;;;2670003;76;20918;-87
2023/04/28 10:24:56;;;;;;;;;;;15.34;15.83;;;;;;2669794;76;20470;-87
2023/04/28 10:28:25;;;;;;;;;;;15.25;16.02;;;;;;2669417;76;20460;-87
2023/04/28 10:31:53;;;;;;;;;;;15.34;16.42;;;;;;2668131;76;20470;-88
2023/04/28 10:35:26;;;;;;;;;;;15.43;16.65;;;;;;2670244;76;20476;-88
2023/04/28 10:38:51;;;;;;;;;;;15.34;16.97;;;;;;2671109;76;20981;-87
2023/04/28 10:42:19;;;;;;;;;;;15.14;17.23;;;;;;2671262;76;20923;-87
2023/04/28 10:45:47;;;;;;;;;;;15.01;17.72;;;;;;2669020;76;20453;-88
2023/04/28 10:49:15;;;;;;;;;;;15.13;17.83;;;;;;2670610;76;20427;-87
2023/04/28 10:52:43;;;;;;;;;;;15.19;17.82;;;;;;2671145;76;20443;-87
2023/04/28 10:56:11;;;;;;;;;;;15.22;17.80;;;;;;2670972;76;20430;-87
2023/04/28 10:59:39;;;;;;;;;;;15.26;18.16;;;;;;2670322;76;20448;-88
2023/04/28 11:03:08;;;;;;;;;;;15.11;18.29;;;;;;2669322;76;20446;-87
2023/04/28 11:06:36;;;;;;;;;;;15.19;18.86;;;;;;2670832;76;20910;-86
2023/04/28 11:10:04;;;;;;;;;;;15.65;18.99;;;;;;2671110;76;20431;-87
2023/04/28 11:13:33;;;;;;;;;;;15.54;19.33;;;;;;2669855;76;20427;-87
2023/04/28 11:17:01;;;;;;;;;;;15.87;19.53;;;;;;2669716;76;20436;-87
2023/04/28 11:20:30;;;;;;;;;;;16.04;19.69;;;;;;2667693;76;20446;-88
2023/04/28 11:23:58;;;;;;;;;;;15.82;19.51;;;;;;2670509;76;20312;-88
2023/04/28 11:27:26;;;;;;;;;;;15.59;20.48;;;;;;2669732;76;20316;-87
2023/04/28 11:30:54;;;;;;;;;;;15.65;21.13;;;;;;2668437;76;20492;-88
2023/04/28 11:34:22;;;;;;;;;;;15.77;21.49;;;;;;2669737;76;20439;-88
2023/04/28 11:37:50;;;;;;;;;;;16.04;21.21;;;;;;2668368;76;20321;-88
2023/04/28 11:41:18;;;;;;;;;;;16.25;21.29;;;;;;2667964;76;20438;-88
2023/04/28 11:44:47;;;;;;;;;;;16.15;21.57;;;;;;2669508;76;20447;-88
2023/04/28 11:48:15;;;;;;;;;;;16.40;21.93;;;;;;2666842;76;20915;-87
2023/04/28 11:51:45;;;;;;;;;;;16.91;21.94;;;;;;2667822;76;20489;-88
2023/04/28 11:55:13;;;;;;;;;;;17.37;21.45;;;;;;2667547;76;20336;-88
2023/04/28 11:58:41;;;;;;;;;;;17.60;20.60;;;;;;2667619;76;20304;-88
2023/04/28 12:02:09;;;;;;;;;;;17.92;21.33;;;;;;2666875;76;20305;-88
2023/04/28 12:05:37;;;;;;;;;;;18.73;21.20;;;;;;2667406;76;20443;-89
2023/04/28 12:09:05;;;;;;;;;;;19.60;19.17;;;;;;2669373;76;20436;-89
2023/04/28 12:12:34;;;;;;;;;;;20.16;18.56;;;;;;2669641;76;20345;-87
2023/04/28 12:16:04;;;;;;;;;;;19.72;16.87;;;;;;2668208;76;20479;-87
2023/04/28 12:19:32;;;;;;;;;;;19.48;18.35;;;;;;2669306;76;20452;-89
2023/04/28 12:23:01;;;;;;;;;;;19.25;19.47;;;;;;2668409;76;20448;-88
2023/04/28 12:26:29;;;;;;;;;;;19.03;19.18;;;;;;2667476;76;20424;-88
2023/04/28 12:29:57;;;;;;;;;;;18.34;19.70;;;;;;2666875;76;20432;-88
2023/04/28 12:33:28;;;;;;;;;;;17.77;20.64;;;;;;2668662;76;20438;-88
2023/04/28 12:36:58;;;;;;;;;;;17.67;21.44;;;;;;2670654;76;20473;-90
2023/04/28 12:40:26;;;;;;;;;;;17.73;21.31;;;;;;2666328;76;20477;-90
2023/04/28 12:43:59;;;;;;;;;;;18.36;21.14;;;;;;2668641;76;20439;-89
2023/04/28 12:47:27;;;;;;;;;;;19.18;20.37;;;;;;2667739;76;20396;-91
2023/04/28 12:50:57;;;;;;;;;;;18.65;19.86;;;;;;2668268;76;20491;-88
2023/04/28 12:54:26;;;;;;;;;;;18.19;20.47;;;;;;2667514;76;20508;-89
2023/04/28 12:57:54;;;;;;;;;;;19.40;20.65;;;;;;2667984;76;20435;-88
2023/04/28 13:05:51;;;;;;;;;;;19.45;18.58;;;;;;2666824;76;20474;-90
2023/04/28 13:09:06;;;;;;;;;;;18.69;19.89;;;;;;2671147;76;20383;-89
2023/04/28 13:12:49;;;;;;;;;;;18.70;20.63;;;;;;2667588;76;20910;-88
2023/04/28 13:16:20;;;;;;;;;;;18.41;20.70;;;;;;2667411;76;20828;-89
2023/04/28 13:19:47;;;;;;;;;;;17.95;21.90;;;;;;2670725;76;20864;-92
2023/04/28 13:23:15;;;;;;;;;;;17.48;22.47;;;;;;2667366;76;20471;-91
2023/04/28 13:26:49;;;;;;;;;;;17.31;23.38;;;;;;2669669;76;20412;-90
2023/04/28 13:30:14;;;;;;;;;;;17.04;24.13;;;;;;2668200;76;20443;-88
2023/04/28 13:33:42;;;;;;;;;;;16.86;24.91;;;;;;2668438;76;20448;-89
2023/04/28 13:37:17;;;;;;;;;;;16.64;25.41;;;;;;2669422;76;20470;-93
2023/04/28 13:40:42;;;;;;;;;;;16.41;25.82;;;;;;2669546;76;20446;-91
2023/04/28 13:44:16;;;;;;;;;;;16.17;26.36;;;;;;2669651;76;20432;-90
2023/04/28 13:47:44;;;;;;;;;;;15.77;27.53;;;;;;2669496;76;20459;-91
2023/04/28 13:51:17;;;;;;;;;;;15.71;30.15;;;;;;2669880;76;20449;-91
2023/04/28 13:54:42;;;;;;;;;;;16.03;30.61;;;;;;2669693;76;20467;-90
2023/04/28 13:58:10;;;;;;;;;;;16.25;29.32;;;;;;2668801;76;20480;-90
2023/04/28 14:01:38;;;;;;;;;;;16.36;29.63;;;;;;2669026;76;20443;-90
2023/04/28 14:05:06;;;;;;;;;;;16.67;29.38;;;;;;2669939;76;20945;-90
2023/04/28 14:08:37;;;;;;;;;;;16.92;28.77;;;;;;2668132;76;20477;-91
2023/04/28 14:12:05;;;;;;;;;;;17.09;28.75;;;;;;2670136;76;20465;-91
2023/04/28 14:15:35;;;;;;;;;;;17.33;28.27;;;;;;2669309;76;20432;-91
2023/04/28 14:19:04;;;;;;;;;;;17.39;27.95;;;;;;2670118;76;20317;-92
2023/04/28 14:22:32;;;;;;;;;;;17.46;27.42;;;;;;2668034;76;20472;-87
2023/04/28 14:26:05;;;;;;;;;;;17.41;27.33;;;;;;2671586;76;20507;-92
2023/04/28 14:29:40;;;;;;;;;;;17.45;27.75;;;;;;2671990;76;20421;-90
2023/04/28 14:33:09;;;;;;;;;;;17.18;27.97;;;;;;2669483;76;20597;-90
2023/04/28 14:36:58;;;;;;;;;;;17.02;28.51;;;;;;2670911;76;20857;-89
2023/04/28 14:40:24;;;;;;;;;;;16.60;29.26;;;;;;2671929;76;20424;-92
2023/04/28 14:44:02;;;;;;;;;;;16.33;30.27;;;;;;2673486;76;20421;-92
2023/04/28 14:47:30;;;;;;;;;;;16.49;30.93;;;;;;2670477;76;20445;-89
2023/04/28 14:50:59;;;;;;;;;;;16.54;30.96;;;;;;2670640;76;20446;-89
2023/04/28 14:54:27;;;;;;;;;;;16.52;30.88;;;;;;2669207;76;20495;-89
2023/04/28 14:57:57;;;;;;;;;;;16.40;31.22;;;;;;2670566;76;20322;-95
2023/04/28 15:01:34;;;;;;;;;;;16.13;32.33;;;;;;2671417;76;20513;-94
2023/04/28 15:05:06;;;;;;;;;;;15.82;34.47;;;;;;2671680;76;20570;-95
2023/04/28 15:08:44;;;;;;;;;;;15.76;35.62;;;;;;2672789;76;20464;-95
2023/04/28 15:12:23;;;;;;;;;;;15.73;35.72;;;;;;2674072;76;20422;-95
2023/04/28 15:15:50;;;;;;;;;;;15.55;37.02;;;;;;2678847;76;20569;-96
2023/04/28 15:19:15;;;;;;;;;;;15.27;40.78;;;;;;2681407;76;20408;-96
2023/04/28 15:22:51;;;;;;;;;;;15.22;42.41;;;;;;2679428;76;20273;-96
2023/04/28 15:30:07;;;;;;;;;;;15.42;43.56;;;;;;2679817;76;20435;-96
2023/04/28 15:33:35;;;;;;;;;;;15.42;43.86;;;;;;2679906;76;20442;-96
2023/04/28 15:37:03;;;;;;;;;;;15.16;45.34;;;;;;2680744;76;20407;-96
2023/04/28 15:40:43;;;;;;;;;;;15.21;46.62;;;;;;2682519;76;20667;-96
2023/04/28 15:44:22;;;;;;;;;;;15.21;47.50;;;;;;2675317;76;20422;-96
2023/04/28 15:48:08;;;;;;;;;;;;;;;;;;;;;
2023/04/28 15:51:50;;;;;;;;;;;15.00;49.88;;;;;;2682830;76;20209;-96
2023/04/28 15:55:40;;;;;;;;;;;14.78;53.13;;;;;;2681535;76;20295;-96
2023/04/28 15:59:23;;;;;;;;;;;14.68;54.68;;;;;;2680210;76;20319;-96
2023/04/28 16:03:02;;;;;;;;;;;14.75;54.02;;;;;;2680829;76;20442;-96
2023/04/28 16:10:06;;;;;;;;;;;14.67;52.52;;;;;;2680350;76;20459;-96
2023/04/28 16:13:36;;;;;;;;;;;14.72;52.56;;;;;;2679469;76;20363;-96
2023/04/28 16:17:10;;;;;;;;;;;14.70;51.92;;;;;;2680739;76;20626;-96
2023/04/28 16:24:33;;;;;;;;;;;;;;;;;;;;;
2023/04/28 16:27:56;;;;;;;;;;;14.69;52.20;;;;;;2680712;76;20530;-96
2023/04/28 16:31:39;;;;;;;;;;;;;;;;;;;;;
2023/04/28 16:35:15;;;;;;;;;;;14.65;52.01;;;;;;2678492;76;20386;-96
2023/04/28 16:38:40;;;;;;;;;;;14.56;52.00;;;;;;2680235;76;20474;-96
2023/04/28 16:42:04;;;;;;;;;;;14.56;52.37;;;;;;2679958;76;20266;-96
2023/04/28 16:45:54;;;;;;;;;;;14.62;52.53;;;;;;2678500;76;20433;-95
2023/04/28 16:49:27;;;;;;;;;;;14.60;52.28;;;;;;2679436;76;20465;-96
2023/04/28 16:52:58;;;;;;;;;;;14.69;52.32;;;;;;2679666;76;20448;-96
2023/04/28 16:56:28;;;;;;;;;;;14.65;51.65;;;;;;2677567;76;20414;-96
2023/04/28 16:59:57;;;;;;;;;;;14.47;51.10;;;;;;2679820;76;20381;-95
2023/04/28 17:03:25;;;;;;;;;;;14.42;50.79;;;;;;2674888;76;20469;-93
2023/04/28 17:07:03;;;;;;;;;;;14.44;51.08;;;;;;2669308;76;20422;-92
2023/04/28 17:10:39;;;;;;;;;;;14.49;51.01;;;;;;2670318;76;21384;-93
2023/04/28 17:15:21;;;;;;;;;;;14.57;51.11;;;;;;2677888;76;20485;-91
2023/04/28 17:18:51;;;;;;;;;;;14.64;50.59;;;;;;2670685;76;20473;-91
2023/04/28 17:22:20;;;;;;;;;;;14.60;49.86;;;;;;2672121;76;20464;-91
2023/04/28 17:41:56;;;;;;;;;;;14.34;50.71;;;;;;2673502;76;20488;-92
2023/04/28 17:45:23;;;;;;;;;;;14.33;51.07;;;;;;2669885;76;20484;-93
2023/04/28 17:49:06;;;;;;;;;;;;;;;;;;;;;
2023/04/28 17:52:31;;;;;;;;;;;14.03;53.23;;;;;;2671046;76;20456;-91
2023/04/28 17:56:01;;;;;;;;;;;14.18;52.88;;;;;;2681043;76;20399;-94
2023/04/28 17:59:32;;;;;;;;;;;14.14;52.79;;;;;;2674866;76;20269;-93
2023/04/28 18:03:09;;;;;;;;;;;14.12;53.29;;;;;;2671635;76;20987;-90
2023/04/28 18:06:34;;;;;;;;;;;13.94;55.13;;;;;;2673244;76;20414;-93
2023/04/28 18:10:02;;;;;;;;;;;13.96;55.10;;;;;;2681970;76;20446;-93
2023/04/28 18:13:32;;;;;;;;;;;13.99;55.06;;;;;;2681218;76;20415;-93
2023/04/28 18:17:03;;;;;;;;;;;13.97;55.67;;;;;;2681039;76;21020;-94
2023/04/28 18:20:31;;;;;;;;;;;13.95;56.57;;;;;;2678865;76;20459;-94
2023/04/28 18:23:59;;;;;;;;;;;13.89;56.46;;;;;;2677882;76;20448;-95
2023/04/28 18:27:27;;;;;;;;;;;13.84;57.13;;;;;;2678345;76;20387;-95
2023/04/28 18:34:26;;;;;;;;;;;13.78;58.46;;;;;;2681094;76;20533;-92
2023/04/28 18:37:54;;;;;;;;;;;13.68;59.31;;;;;;2681470;76;20490;-92
2023/04/28 18:41:22;;;;;;;;;;;13.66;59.41;;;;;;2681293;76;20449;-94
2023/04/28 18:44:50;;;;;;;;;;;13.62;58.43;;;;;;2681200;76;20467;-93
2023/04/28 18:48:19;;;;;;;;;;;13.52;58.32;;;;;;2680873;76;20518;-93
2023/04/28 18:51:47;;;;;;;;;;;13.26;62.03;;;;;;2681136;76;20489;-93
2023/04/28 18:55:28;;;;;;;;;;;;;;;;;;;;;
2023/04/28 19:02:41;;;;;;;;;;;13.14;64.03;;;;;;2678093;76;20594;-93
2023/04/28 19:47:50;;;;;;;;;;;13.29;57.46;;;;;;2673620;76;20306;-94
2023/04/28 19:51:19;;;;;;;;;;;13.31;57.72;;;;;;2680735;76;20335;-93
2023/04/28 19:54:54;;;;;;;;;;;13.29;57.46;;;;;;2677976;76;20333;-94
2023/04/28 19:58:32;;;;;;;;;;;13.30;57.10;;;;;;2680961;76;20447;-95
2023/04/28 20:02:00;;;;;;;;;;;13.30;57.14;;;;;;2680190;76;20454;-96
2023/04/28 20:05:37;;;;;;;;;;;13.32;56.87;;;;;;2678468;76;20496;-95
2023/04/28 20:09:29;;;;;;;;;;;13.35;56.84;;;;;;2679585;76;20277;-95
2023/04/28 20:12:58;;;;;;;;;;;13.33;56.81;;;;;;2679646;76;20360;-96
2023/04/28 20:16:32;;;;;;;;;;;13.30;56.48;;;;;;2680303;76;20465;-96
2023/04/28 20:20:04;;;;;;;;;;;13.29;56.42;;;;;;2679793;76;20498;-96
2023/04/28 20:23:52;;;;;;;;;;;13.25;56.06;;;;;;2682074;76;20233;-95
2023/04/28 20:27:27;;;;;;;;;;;13.19;55.61;;;;;;2681269;76;20468;-93
2023/04/28 20:31:12;;;;;;;;;;;13.16;55.65;;;;;;2679544;76;20459;-96
2023/04/28 20:43:21;;;;;;;;;;;12.72;51.68;;;;;;2666419;76;20541;-95
2023/04/28 20:46:52;;;;;;;;;;;12.61;50.56;;;;;;2682226;76;20231;-94
2023/04/28 20:50:42;;;;;;;;;;;12.50;50.14;;;;;;2683997;76;20276;-95
2023/04/28 21:02:12;;;;;;;;;;;;;;;;;;;;;
2023/04/28 21:13:08;;;;;;;;;;;12.15;46.61;;;;;;2676949;76;20370;-94
2023/04/28 21:20:57;;;;;;;;;;;12.08;45.99;;;;;;2678809;76;20702;-94
2023/04/28 21:28:13;;;;;;;;;;;12.06;45.80;;;;;;2678811;76;20410;-94
2023/04/28 21:31:50;;;;;;;;;;;12.04;45.63;;;;;;2682466;76;20310;-96
2023/04/28 21:35:37;;;;;;;;;;;12.03;46.09;;;;;;2681256;76;20217;-94
2023/04/28 21:39:35;;;;;;;;;;;12.06;46.70;;;;;;2677776;76;20438;-94
2023/04/28 21:43:09;;;;;;;;;;;12.13;48.24;;;;;;2680568;76;20457;-94
2023/04/28 21:46:41;;;;;;;;;;;12.33;50.02;;;;;;2679158;76;20390;-95
2023/04/28 21:50:14;;;;;;;;;;;12.47;51.08;;;;;;2675104;76;20427;-94
2023/04/28 21:53:45;;;;;;;;;;;12.62;51.66;;;;;;2675724;76;20432;-93
2023/04/28 21:57:14;;;;;;;;;;;12.72;52.10;;;;;;2675091;76;20420;-94
2023/04/28 22:00:46;;;;;;;;;;;12.76;52.52;;;;;;2674321;76;20446;-94
2023/04/28 22:04:15;;;;;;;;;;;12.79;52.27;;;;;;2674998;76;20458;-93
2023/04/28 22:07:47;;;;;;;;;;;12.77;52.27;;;;;;2676890;76;20444;-94
2023/04/28 22:11:15;;;;;;;;;;;12.66;51.88;;;;;;2678690;76;20439;-93
2023/04/28 22:14:48;;;;;;;;;;;12.61;51.49;;;;;;2676587;76;20432;-94
2023/04/28 22:18:25;;;;;;;;;;;12.62;51.94;;;;;;2675704;76;20444;-93
2023/04/28 22:21:58;;;;;;;;;;;12.66;52.17;;;;;;2676458;76;20447;-93
2023/04/28 22:25:32;;;;;;;;;;;12.64;52.04;;;;;;2675907;76;20930;-92
2023/04/28 22:29:01;;;;;;;;;;;12.64;52.11;;;;;;2676700;76;20431;-93
2023/04/28 22:32:38;;;;;;;;;;;12.63;52.22;;;;;;2674204;76;20814;-94
2023/04/28 22:36:14;;;;;;;;;;;12.74;52.84;;;;;;2675089;76;21102;-93
2023/04/28 22:39:51;;;;;;;;;;;12.75;52.82;;;;;;2676520;76;20311;-94
2023/04/28 22:43:30;;;;;;;;;;;12.73;52.88;;;;;;2682181;76;20421;-95
2023/04/28 22:46:58;;;;;;;;;;;12.77;52.89;;;;;;2677405;76;20882;-93
2023/04/28 22:50:29;;;;;;;;;;;12.76;52.40;;;;;;2673136;76;20509;-93
2023/04/28 22:53:57;;;;;;;;;;;12.64;52.14;;;;;;2673890;76;20469;-94
2023/04/28 22:57:27;;;;;;;;;;;12.57;51.82;;;;;;2674643;76;20460;-95
2023/04/28 23:00:55;;;;;;;;;;;12.51;51.60;;;;;;2675536;76;20306;-93
2023/04/28 23:04:24;;;;;;;;;;;12.50;51.71;;;;;;2679286;76;20407;-93
2023/04/28 23:07:55;;;;;;;;;;;12.49;51.58;;;;;;2679115;76;20458;-94
2023/04/28 23:11:26;;;;;;;;;;;12.47;51.24;;;;;;2676937;76;20747;-93
2023/04/28 23:14:55;;;;;;;;;;;12.41;50.56;;;;;;2675987;76;20431;-93
2023/04/28 23:18:23;;;;;;;;;;;12.26;48.12;;;;;;2674838;76;20462;-94
2023/04/28 23:21:59;;;;;;;;;;;12.11;47.08;;;;;;2678342;76;20476;-93
2023/04/28 23:25:27;;;;;;;;;;;12.03;47.25;;;;;;2679395;76;20786;-94
2023/04/28 23:29:01;;;;;;;;;;;12.02;48.28;;;;;;2677835;76;20448;-94
2023/04/28 23:36:23;;;;;;;;;;;11.81;44.97;;;;;;2678428;76;20456;-94
2023/04/28 23:39:49;;;;;;;;;;;11.71;44.51;;;;;;2680511;76;20321;-94
2023/04/28 23:43:17;;;;;;;;;;;11.61;44.42;;;;;;2680356;76;21200;-93
2023/04/28 23:46:49;;;;;;;;;;;11.54;44.18;;;;;;2679941;76;20420;-93
2023/04/28 23:50:26;;;;;;;;;;;11.46;44.16;;;;;;2680970;76;20308;-93
2023/04/28 23:54:01;;;;;;;;;;;11.40;43.62;;;;;;2681533;76;20436;-93
2023/04/28 23:57:33;;;;;;;;;;;11.36;43.84;;;;;;2680450;76;20429;-94
